Terminal Aerodrome Forecast
Issued by NWS Twin Cities, MN

Home | Current Version | Previous Version | Graphics & Text | Print | Product List | Glossary On
Versions: 1 2 3 4 5 6 7 8 9 10 11 12 13 14 15 16 17 18 19 20 21
000
FTUS43 KMPX 200304 AAB
TAFSTC
TAF AMD
KSTC 200304Z 2003/2024 13005KT 6SM BR SCT008 OVC040
     FM200600 13007KT 4SM BR BKN008
     FM200800 13006KT 1SM BR OVC005
     FM201000 13005KT 1/2SM -DZ FG VV002
     FM201500 13004KT 2SM BR OVC004
     FM201800 13005KT 4SM BR OVC005=

USA.gov is the U.S. government's official web portal to all federal, state and local government web resources and services.